| time (UTC) | temp F | wind direction | speed MPH | gust MPH | rain 1hr in | rain 24hr in | rain mn in | humidity % | barometer mb |
| 20260507155024 | 52 | 297 | 1.0 | 2.0 | 0.00 | 0.00 | 0.00 | 100 | 1045.4 |
| 20260507154024 | 52 | 315 | 3.0 | 4.0 | 0.00 | 0.00 | 0.00 | 100 | 1045.4 |
| 20260507153025 | 52 | 281 | 2.0 | 2.0 | 0.00 | 0.00 | 0.00 | 100 | 1045.4 |
| 20260507152024 | 51 | 315 | 2.0 | 2.0 | 0.00 | 0.00 | 0.00 | 100 | 1045.7 |
| 20260507151122 | 51 | 292 | 2.0 | 3.0 | 0.00 | 0.00 | 0.00 | 100 | 1045.7 |
| 20260507144223 | 50 | 315 | 4.0 | 6.0 | 0.00 | 0.00 | 0.00 | 100 | 1045.7 |
| 20260507143223 | 50 | 315 | 5.0 | 7.0 | 0.00 | 0.00 | 0.00 | 100 | 1045.6 |
| 20260507142223 | 50 | 292 | 2.0 | 2.0 | 0.00 | 0.00 | 0.00 | 100 | 1045.7 |
| 20260507140226 | 50 | 315 | 4.0 | 4.0 | 0.00 | 0.00 | 0.00 | 100 | 1045.7 |
| 20260507135322 | 50 | 270 | 1.0 | 1.0 | 0.00 | 0.00 | 0.00 | 100 | 1045.7 |
| 20260507134323 | 50 | 270 | 2.0 | 2.0 | 0.00 | 0.00 | 0.00 | 100 | 1045.7 |
| 20260507133423 | 50 | 247 | 2.0 | 3.0 | 0.00 | 0.00 | 0.00 | 100 | 1045.7 |
| 20260507132422 | 50 | 292 | 3.0 | 4.0 | 0.00 | 0.00 | 0.00 | 100 | 1045.7 |
| 20260507131424 | 49 | 317 | 4.0 | 7.0 | 0.00 | 0.00 | 0.00 | 100 | 1045.7 |
| 20260507130425 | 48 | 299 | 2.0 | 4.0 | 0.00 | 0.00 | 0.00 | 100 | 1045.7 |
| 20260507125423 | 48 | 310 | 2.0 | 4.0 | 0.00 | 0.00 | 0.00 | 100 | 1045.4 |
| 20260507121523 | 47 | 304 | 3.0 | 6.0 | 0.00 | 0.00 | 0.00 | 100 | 1045.4 |
| 20260507114524 | 46 | 309 | 3.0 | 4.0 | 0.00 | 0.00 | 0.00 | 100 | 1045.4 |
| 20260507112525 | 44 | 297 | 1.0 | 4.0 | 0.00 | 0.00 | 0.00 | 100 | 1045.0 |
| 20260507111526 | 43 | 302 | 0.0 | 2.0 | 0.00 | 0.00 | 0.00 | 100 | 1045.0 |
| 20260507105722 | 42 | 315 | 0.0 | 0.0 | 0.00 | 0.00 | 0.00 | 100 | 1045.0 |
| 20260507104725 | 41 | 315 | 0.0 | 0.0 | 0.00 | 0.00 | 0.00 | 100 | 1044.6 |
| 20260507103823 | 41 | 315 | 0.0 | 0.0 | 0.00 | 0.00 | 0.00 | 100 | 1044.7 |
| 20260507102823 | 41 | 315 | 0.0 | 0.0 | 0.00 | 0.00 | 0.00 | 100 | 1044.7 |
| 20260507101824 | 41 | 315 | 0.0 | 0.0 | 0.00 | 0.00 | 0.00 | 100 | 1045.0 |
| 20260507100825 | 41 | 315 | 0.0 | 0.0 | 0.00 | 0.00 | 0.00 | 100 | 1045.0 |
| 20260507095923 | 41 | 315 | 0.0 | 0.0 | 0.00 | 0.00 | 0.00 | 100 | 1044.7 |
| 20260507094923 | 42 | 315 | 0.0 | 0.0 | 0.00 | 0.00 | 0.00 | 100 | 1045.0 |
| 20260507093925 | 42 | 315 | 0.0 | 0.0 | 0.00 | 0.00 | 0.00 | 100 | 1045.0 |
| 20260507093022 | 42 | 315 | 0.0 | 0.0 | 0.00 | 0.00 | 0.00 | 100 | 1045.0 |
| 20260507092924 | 42 | 315 | 0.0 | 0.0 | 0.00 | 0.00 | 0.00 | 100 | 1045.0 |
| 20260507092022 | 43 | 315 | 0.0 | 0.0 | 0.00 | 0.00 | 0.00 | 100 | 1044.7 |
| 20260507091023 | 43 | 315 | 0.0 | 2.0 | 0.00 | 0.00 | 0.00 | 100 | 1044.7 |
| 20260507090028 | 44 | 315 | 0.0 | 0.0 | 0.00 | 0.00 | 0.00 | 100 | 1044.6 |
| 20260507085022 | 44 | 315 | 0.0 | 2.0 | 0.00 | 0.00 | 0.00 | 100 | 1044.6 |
| 20260507084025 | 44 | 315 | 1.0 | 2.0 | 0.00 | 0.00 | 0.00 | 100 | 1044.7 |
| 20260507082223 | 45 | 315 | 0.0 | 0.0 | 0.00 | 0.00 | 0.00 | 100 | 1044.6 |
| 20260507081226 | 45 | 315 | 1.0 | 2.0 | 0.00 | 0.00 | 0.00 | 100 | 1044.6 |
| 20260507080223 | 45 | 360 | 1.0 | 2.0 | 0.00 | 0.00 | 0.00 | 100 | 1044.3 |
| 20260507075223 | 45 | 315 | 2.0 | 3.0 | 0.00 | 0.00 | 0.00 | 100 | 1044.6 |
| 20260507074224 | 44 | 270 | 0.0 | 0.0 | 0.00 | 0.00 | 0.00 | 100 | 1044.3 |
| 20260507073223 | 44 | 270 | 0.0 | 0.0 | 0.00 | 0.00 | 0.00 | 100 | 1044.0 |
| 20260507072224 | 45 | 270 | 0.0 | 0.0 | 0.00 | 0.00 | 0.00 | 100 | 1044.0 |
| 20260507071225 | 45 | 270 | 0.0 | 0.0 | 0.00 | 0.00 | 0.00 | 100 | 1043.9 |
| 20260507070323 | 45 | 315 | 0.0 | 0.0 | 0.00 | 0.00 | 0.00 | 100 | 1044.3 |
| 20260507065323 | 46 | 293 | 1.0 | 2.0 | 0.00 | 0.00 | 0.00 | 100 | 1044.3 |
| 20260507063423 | 46 | 317 | 2.0 | 5.0 | 0.00 | 0.00 | 0.00 | 100 | 1044.3 |
| 20260507061523 | 46 | 310 | 6.0 | 11.0 | 0.00 | 0.00 | 0.00 | 100 | 1044.0 |
| 20260507060622 | 46 | 315 | 6.0 | 9.0 | 0.00 | 0.00 | 0.00 | 100 | 1044.0 |
| 20260507055623 | 47 | 286 | 4.0 | 7.0 | 0.00 | 0.00 | 0.00 | 100 | 1044.0 |
| 20260507054722 | 46 | 309 | 3.0 | 5.0 | 0.00 | 0.00 | 0.00 | 100 | 1043.9 |
| 20260507053723 | 46 | 310 | 1.0 | 3.0 | 0.00 | 0.00 | 0.00 | 100 | 1043.9 |
| 20260507053623 | 46 | 328 | 3.0 | 8.0 | 0.00 | 0.00 | 0.00 | 100 | 1044.0 |
| 20260507053523 | 46 | 315 | 2.0 | 4.0 | 0.00 | 0.00 | 0.00 | 100 | 1043.9 |
| 20260507052523 | 46 | 315 | 6.0 | 7.0 | 0.00 | 0.00 | 0.00 | 100 | 1043.9 |
| 20260507051622 | 47 | 296 | 0.0 | 2.0 | 0.00 | 0.00 | 0.00 | 100 | 1043.6 |
| 20260507050623 | 47 | 287 | 1.0 | 2.0 | 0.00 | 0.00 | 0.00 | 100 | 1043.6 |
| 20260507045722 | 47 | 307 | 2.0 | 4.0 | 0.00 | 0.00 | 0.00 | 100 | 1044.0 |
| 20260507044724 | 47 | 311 | 3.0 | 5.0 | 0.00 | 0.00 | 0.00 | 100 | 1043.9 |
| 20260507042722 | 47 | 315 | 4.0 | 7.0 | 0.00 | 0.00 | 0.00 | 100 | 1043.9 |
| 20260507041738 | 47 | 300 | 2.0 | 2.0 | 0.00 | 0.00 | 0.00 | 100 | 1043.9 |
| 20260507035817 | 47 | 280 | 2.0 | 4.0 | 0.00 | 0.00 | 0.00 | 100 | 1044.0 |
| 20260507034817 | 48 | 270 | 5.0 | 7.0 | 0.00 | 0.00 | 0.00 | 100 | 1044.0 |
| 20260507033817 | 48 | 292 | 1.0 | 4.0 | 0.00 | 0.00 | 0.00 | 100 | 1043.9 |
| 20260507031818 | 48 | 292 | 2.0 | 5.0 | 0.00 | 0.00 | 0.00 | 100 | 1044.0 |
| 20260507025917 | 49 | 308 | 5.0 | 7.0 | 0.00 | 0.00 | 0.00 | 100 | 1044.0 |
| 20260507025816 | 49 | 312 | 4.0 | 7.0 | 0.00 | 0.00 | 0.00 | 100 | 1044.0 |
| 20260507024817 | 49 | 285 | 6.0 | 11.0 | 0.00 | 0.00 | 0.00 | 100 | 1043.9 |
| 20260507023817 | 49 | 300 | 5.0 | 6.0 | 0.00 | 0.00 | 0.00 | 100 | 1043.9 |
| 20260507022916 | 49 | 309 | 6.0 | 9.0 | 0.00 | 0.00 | 0.00 | 100 | 1043.9 |
| 20260507020916 | 51 | 315 | 5.0 | 8.0 | 0.00 | 0.00 | 0.00 | 100 | 1043.9 |
| 20260507014017 | 52 | 274 | 6.0 | 8.0 | 0.00 | 0.00 | 0.00 | 100 | 1043.6 |
| 20260507013017 | 52 | 292 | 5.0 | 6.0 | 0.00 | 0.00 | 0.00 | 100 | 1043.6 |
| 20260507012018 | 52 | 315 | 2.0 | 4.0 | 0.00 | 0.00 | 0.00 | 100 | 1043.3 |
| 20260507011116 | 53 | 304 | 2.0 | 3.0 | 0.00 | 0.00 | 0.00 | 100 | 1043.4 |
| 20260507005120 | 54 | 315 | 1.0 | 1.0 | 0.00 | 0.00 | 0.00 | 100 | 1043.3 |
| 20260507004120 | 54 | 281 | 2.0 | 2.0 | 0.00 | 0.00 | 0.00 | 100 | 1043.3 |
| 20260507000219 | 57 | 225 | 7.0 | 7.0 | 0.00 | 0.00 | 0.00 | 100 | 1042.9 |
| 20260506235221 | 58 | 265 | 4.0 | 5.0 | 0.00 | 0.00 | 0.00 | 100 | 1042.9 |
| 20260506234320 | 58 | 296 | 8.0 | 9.0 | 0.00 | 0.00 | 0.00 | 100 | 1042.9 |
| 20260506233320 | 58 | 307 | 5.0 | 6.0 | 0.00 | 0.00 | 0.00 | 100 | 1042.6 |
| 20260506232321 | 57 | 225 | 5.0 | 5.0 | 0.00 | 0.00 | 0.00 | 100 | 1042.6 |
| 20260506231320 | 56 | 208 | 1.0 | 2.0 | 0.00 | 0.00 | 0.00 | 100 | 1042.6 |
| 20260506230321 | 57 | 270 | 1.0 | 1.0 | 0.00 | 0.00 | 0.00 | 100 | 1042.6 |
| 20260506225419 | 56 | 270 | 1.0 | 2.0 | 0.00 | 0.00 | 0.00 | 100 | 1042.6 |
| 20260506224420 | 56 | 225 | 2.0 | 4.0 | 0.00 | 0.00 | 0.00 | 100 | 1042.5 |
| 20260506223434 | 56 | 238 | 2.0 | 4.0 | 0.00 | 0.00 | 0.00 | 100 | 1042.5 |
| 20260506222519 | 55 | 202 | 2.0 | 4.0 | 0.00 | 0.00 | 0.00 | 100 | 1042.7 |
| 20260506220519 | 57 | 180 | 5.0 | 7.0 | 0.00 | 0.00 | 0.00 | 100 | 1042.9 |
| 20260506215618 | 56 | 202 | 2.0 | 2.0 | 0.00 | 0.00 | 0.00 | 100 | 1042.9 |
| 20260506214620 | 56 | 180 | 4.0 | 4.0 | 0.00 | 0.00 | 0.00 | 100 | 1042.9 |
| 20260506213620 | 56 | 203 | 4.0 | 7.0 | 0.00 | 0.00 | 0.00 | 100 | 1043.3 |
| 20260506212619 | 57 | 180 | 7.0 | 9.0 | 0.00 | 0.00 | 0.00 | 100 | 1043.3 |
| 20260506211619 | 57 | 180 | 3.0 | 3.0 | 0.00 | 0.00 | 0.00 | 100 | 1043.3 |
| 20260506205620 | 0 | 0 | 0.0 | 0.0 | 0.00 | 0.00 | 0.00 | 100 | |
| 20260506202721 | 57 | 180 | 0.0 | 0.0 | 0.00 | 0.00 | 0.00 | 100 | 1043.9 |
| 20260506201719 | 56 | 180 | 0.0 | 0.0 | 0.00 | 0.00 | 0.00 | 100 | 1043.9 |
| 20260506200718 | 56 | 180 | 0.0 | 0.0 | 0.00 | 0.00 | 0.00 | 100 | 1043.9 |
| 20260506195718 | 0 | 0 | 0.0 | 0.0 | 0.00 | 0.00 | 0.00 | 100 | |
| 20260506194733 | 0 | 0 | 0.0 | 0.0 | 0.00 | 0.00 | 0.00 | 100 | |
| 20260506193816 | 0 | 0 | 0.0 | 0.0 | 0.00 | 0.00 | 0.00 | 100 | |
| 20260506192829 | 56 | 225 | 1.0 | 1.0 | 0.00 | 0.00 | 0.00 | 100 | 1044.7 |
| 20260506191928 | 57 | 180 | 4.0 | 4.0 | 0.00 | 0.00 | 0.00 | 100 | 1044.7 |
| 20260506190930 | 57 | 180 | 4.0 | 4.0 | 0.00 | 0.00 | 0.00 | 100 | 1044.7 |
| 20260506185927 | 0 | 0 | 0.0 | 0.0 | 0.00 | 0.00 | 0.00 | 100 | |
| 20260506184943 | 0 | 0 | 0.0 | 0.0 | 0.00 | 0.00 | 0.00 | 100 | |
| 20260506183927 | 0 | 0 | 0.0 | 0.0 | 0.00 | 0.00 | 0.00 | 100 | |
| 20260506182926 | 0 | 0 | 0.0 | 0.0 | 0.00 | 0.00 | 0.00 | 100 | |
| 20260506182024 | 0 | 0 | 0.0 | 0.0 | 0.00 | 0.00 | 0.00 | 100 | |
| 20260506181026 | 0 | 0 | 0.0 | 0.0 | 0.00 | 0.00 | 0.00 | 100 | |
| 20260506180024 | 0 | 0 | 0.0 | 0.0 | 0.00 | 0.00 | 0.00 | 100 | |
| 20260506175924 | 0 | 0 | 0.0 | 0.0 | 0.00 | 0.00 | 0.00 | 100 | |
| 20260506174924 | 0 | 0 | 0.0 | 0.0 | 0.00 | 0.00 | 0.00 | 100 | |
| 20260506173924 | 0 | 0 | 0.0 | 0.0 | 0.00 | 0.00 | 0.00 | 100 | |
| 20260506173023 | 0 | 0 | 0.0 | 0.0 | 0.00 | 0.00 | 0.00 | 100 | |
| 20260506172042 | 0 | 0 | 0.0 | 0.0 | 0.00 | 0.00 | 0.00 | 100 | |
| 20260506171022 | 0 | 0 | 0.0 | 0.0 | 0.00 | 0.00 | 0.00 | 100 | |
| 20260506170022 | 0 | 0 | 0.0 | 0.0 | 0.00 | 0.00 | 0.00 | 100 | |
| 20260506165021 | 0 | 0 | 0.0 | 0.0 | 0.00 | 0.00 | 0.00 | 100 | |
| 20260506164021 | 0 | 0 | 0.0 | 0.0 | 0.00 | 0.00 | 0.00 | 100 | |
| 20260506163938 | 0 | 0 | 0.0 | 0.0 | 0.00 | 0.00 | 0.00 | 100 | |
| 20260506162922 | 0 | 0 | 0.0 | 0.0 | 0.00 | 0.00 | 0.00 | 100 | |
| 20260506161920 | 0 | 0 | 0.0 | 0.0 | 0.00 | 0.00 | 0.00 | 100 | |
| 20260506160920 | 0 | 0 | 0.0 | 0.0 | 0.00 | 0.00 | 0.00 | 100 |